Terminal Aerodrome Forecast
Issued by NWS

Home | Current Version | Previous Version | Text Only | Print | Product List | Glossary On
Versions: 1 2 3 4 5 6 7 8 9 10 11 12 13
000
FTUS43 KSGF 300803 AAA
TAFBBG
TAF AMD
KBBG 300803Z 3008/3106 VRB03KT P6SM VCSH BKN060
      TEMPO 3008/3012 5SM -TSRA BR OVC045CB
     FM301500 14006KT P6SM SCT050 PROB30 3020/3101 4SM TSRA BR
      BKN035CB
     FM310200 VRB03KT P6SM FEW090=

USA.gov is the U.S. government's official web portal to all federal, state and local government web resources and services.